Time;durP1;ratioP1;P1;durP2;ratioP2;P2;SDS_P1;SDS_P2;PMS_P1;PMS_P2;Temp;Humidity;BMP_temperature;BMP_pressure;BME280_temperature;BME280_humidity;BME280_pressure;Samples;Min_cycle;Max_cycle;Signal;HPM_P1;HPM_P2
2022/10/31 00:00:41;;;;;;;1.38;0.75;;;;;;;5.06;100.00;98597.56;5173830;27;20071;-49
2022/10/31 00:03:08;;;;;;;1.77;0.65;;;;;;;5.10;100.00;98582.19;5174178;27;20420;-46
2022/10/31 00:05:35;;;;;;;2.55;0.70;;;;;;;5.02;100.00;98593.97;5173725;27;20536;-49
2022/10/31 00:08:01;;;;;;;0.93;0.55;;;;;;;4.92;100.00;98599.88;5174116;27;20042;-48
2022/10/31 00:10:27;;;;;;;0.70;0.60;;;;;;;4.88;100.00;98629.63;5173653;27;20055;-46
2022/10/31 00:12:53;;;;;;;0.60;0.60;;;;;;;4.93;100.00;98623.16;5174209;27;20412;-49
2022/10/31 00:15:19;;;;;;;1.52;0.70;;;;;;;4.92;100.00;98635.19;5173642;27;20054;-46
2022/10/31 00:17:46;;;;;;;5.53;0.80;;;;;;;4.95;100.00;98629.84;5173984;27;20105;-47
2022/10/31 00:20:12;;;;;;;4.35;0.73;;;;;;;4.98;100.00;98612.09;5173656;27;20137;-47
2022/10/31 00:22:39;;;;;;;2.83;0.80;;;;;;;4.90;100.00;98602.94;5173395;27;20053;-46
2022/10/31 00:25:05;;;;;;;0.93;0.60;;;;;;;4.78;100.00;98637.44;5173675;27;20102;-47
2022/10/31 00:27:31;;;;;;;1.05;0.60;;;;;;;4.84;100.00;98650.47;5173388;27;20088;-48
2022/10/31 00:29:58;;;;;;;0.95;0.60;;;;;;;4.68;100.00;98669.34;5173753;27;20048;-46
2022/10/31 00:32:24;;;;;;;2.75;0.80;;;;;;;4.59;100.00;98665.13;5173649;27;20471;-46
2022/10/31 00:34:50;;;;;;;2.97;0.73;;;;;;;4.70;100.00;98682.59;5173793;27;20580;-48
2022/10/31 00:37:17;;;;;;;1.75;0.80;;;;;;;4.51;100.00;98664.13;5173338;27;20138;-47
2022/10/31 00:39:45;;;;;;;0.90;0.70;;;;;;;4.58;100.00;98688.78;5173853;27;20042;-46
2022/10/31 00:42:11;;;;;;;1.48;0.70;;;;;;;4.49;100.00;98656.28;5173371;27;20094;-47
2022/10/31 00:44:37;;;;;;;1.20;0.80;;;;;;;4.53;100.00;98647.47;5173228;27;20083;-46
2022/10/31 00:47:03;;;;;;;2.17;1.02;;;;;;;4.57;100.00;98623.97;5173221;27;20089;-46
2022/10/31 00:49:29;;;;;;;3.05;0.70;;;;;;;4.48;100.00;98561.63;5173020;27;20046;-47
2022/10/31 00:51:56;;;;;;;2.28;0.85;;;;;;;4.38;100.00;98527.59;5173240;27;20046;-46
2022/10/31 00:54:23;;;;;;;1.90;1.08;;;;;;;4.35;100.00;98497.63;5173082;27;20046;-46
2022/10/31 00:56:49;;;;;;;1.40;0.63;;;;;;;4.44;100.00;98525.47;5173129;27;20097;-46
2022/10/31 00:59:15;;;;;;;2.97;0.82;;;;;;;4.37;100.00;98509.75;5172890;27;20089;-46
2022/10/31 01:01:41;;;;;;;0.98;0.50;;;;;;;4.31;100.00;98483.97;5173005;27;20048;-45
2022/10/31 01:04:08;;;;;;;3.20;0.90;;;;;;;4.21;100.00;98452.66;5172944;27;20050;-45
2022/10/31 01:06:34;;;;;;;4.78;0.77;;;;;;;4.34;100.00;98455.34;5173209;27;20046;-46
2022/10/31 01:09:00;;;;;;;1.65;0.68;;;;;;;4.38;100.00;98448.13;5172710;27;20050;-46
2022/10/31 01:11:27;;;;;;;0.65;0.63;;;;;;;4.29;100.00;98442.78;5173042;27;20046;-46
2022/10/31 01:13:54;;;;;;;4.13;0.90;;;;;;;4.31;100.00;98467.69;5172859;27;20493;-46
2022/10/31 01:16:22;;;;;;;2.17;0.68;;;;;;;4.19;100.00;98489.38;5172909;27;20054;-46
2022/10/31 01:18:48;;;;;;;3.30;0.73;;;;;;;4.26;100.00;98527.59;5172797;27;20057;-46
2022/10/31 01:21:17;;;;;;;1.95;0.70;;;;;;;4.11;100.00;98556.19;5172639;27;20128;-50
2022/10/31 01:23:43;;;;;;;2.20;0.93;;;;;;;4.15;100.00;98575.28;5172653;27;20042;-50
2022/10/31 01:26:11;;;;;;;4.22;0.80;;;;;;;4.12;100.00;98598.44;5172552;27;20042;-48
2022/10/31 01:28:44;;;;;;;3.88;0.95;;;;;;;3.96;100.00;98665.28;5172607;27;20049;-48
2022/10/31 01:31:11;;;;;;;3.13;1.25;;;;;;;4.00;100.00;98693.38;5172505;27;20513;-47
2022/10/31 01:33:38;;;;;;;1.70;0.70;;;;;;;4.04;100.00;98688.06;5172912;27;20086;-48
2022/10/31 01:36:12;;;;;;;2.70;0.90;;;;;;;3.80;100.00;98694.97;5172334;27;20060;-51
2022/10/31 01:38:39;;;;;;;2.72;0.82;;;;;;;4.05;100.00;98728.41;5172852;27;20053;-48
2022/10/31 01:41:05;;;;;;;3.22;1.00;;;;;;;4.02;100.00;98737.22;5172347;27;20042;-49
2022/10/31 01:43:47;;;;;;;2.05;1.30;;;;;;;3.93;100.00;98729.16;5172502;27;20058;-48
2022/10/31 01:46:15;;;;;;;4.35;1.13;;;;;;;3.97;100.00;98749.06;5172382;27;20050;-46
2022/10/31 01:48:42;;;;;;;1.77;1.02;;;;;;;3.91;100.00;98755.81;5172536;27;20046;-50
2022/10/31 01:51:10;;;;;;;3.13;0.82;;;;;;;3.96;100.00;98763.72;5172644;27;20060;-48
2022/10/31 01:53:37;;;;;;;3.78;1.02;;;;;;;3.89;100.00;98778.94;5172432;27;20157;-47
2022/10/31 01:56:03;;;;;;;2.58;0.60;;;;;;;3.82;100.00;98797.66;5172532;27;20516;-47
2022/10/31 01:58:32;;;;;;;2.88;0.85;;;;;;;3.73;100.00;98809.38;5172401;27;20050;-49
2022/10/31 02:01:01;;;;;;;2.75;0.88;;;;;;;3.80;100.00;98883.94;5172715;27;20057;-47
2022/10/31 02:03:29;;;;;;;3.60;1.08;;;;;;;3.70;100.00;98913.03;5172039;27;20050;-47
2022/10/31 02:05:57;;;;;;;3.08;1.00;;;;;;;3.73;100.00;98919.69;5172218;27;20146;-46
2022/10/31 02:08:28;;;;;;;5.72;1.00;;;;;;;3.82;100.00;98942.16;5172159;27;20137;-46
2022/10/31 02:10:56;;;;;;;1.63;0.90;;;;;;;3.67;100.00;98948.94;5171925;27;20527;-49
2022/10/31 02:13:23;;;;;;;3.15;0.80;;;;;;;3.74;100.00;98972.84;5172112;27;20052;-46
2022/10/31 02:15:52;;;;;;;2.08;1.02;;;;;;;3.84;100.00;99012.38;5171936;27;20097;-46
2022/10/31 02:18:20;;;;;;;3.40;0.88;;;;;;;3.82;100.00;99006.44;5171983;27;20503;-46
2022/10/31 02:20:57;;;;;;;3.38;0.93;;;;;;;3.70;100.00;99031.53;5174421;27;20137;-46
2022/10/31 02:23:50;;;;;;;1.50;0.82;;;;;;;3.68;100.00;99107.75;5175758;27;20052;-48
2022/10/31 02:26:43;;;;;;;2.15;0.90;;;;;;;3.73;100.00;99140.16;5175467;27;20046;-48
2022/10/31 02:29:53;;;;;;;5.97;1.10;;;;;;;3.53;100.00;99220.19;5164714;27;20053;-46
2022/10/31 02:32:24;;;;;;;12.30;1.45;;;;;;;3.70;100.00;99280.97;5175733;27;20046;-47
2022/10/31 02:34:57;;;;;;;0.85;0.85;;;;;;;3.53;100.00;99317.78;5175306;27;20105;-46
2022/10/31 02:37:28;;;;;;;8.20;0.90;;;;;;;3.62;100.00;99374.72;5175540;27;20092;-46
2022/10/31 02:40:04;;;;;;;1.58;0.80;;;;;;;3.70;100.00;99400.28;5175550;27;20043;-46
2022/10/31 02:42:36;;;;;;;6.07;0.98;;;;;;;3.77;100.00;99420.41;5175081;27;20501;-46
2022/10/31 02:45:11;;;;;;;3.33;0.85;;;;;;;3.67;100.00;99428.81;5175597;27;20147;-46
2022/10/31 02:47:39;;;;;;;2.72;0.82;;;;;;;3.78;100.00;99429.31;5175102;27;20046;-46
2022/10/31 02:50:10;;;;;;;4.28;1.30;;;;;;;3.64;100.00;99453.03;5175076;27;20053;-46
2022/10/31 02:52:37;;;;;;;1.88;0.68;;;;;;;3.65;100.00;99474.41;5175122;27;20050;-47
2022/10/31 02:55:11;;;;;;;10.52;1.13;;;;;;;3.53;100.00;99471.47;5175082;27;20061;-46
2022/10/31 02:57:38;;;;;;;;;;;;;;;3.63;100.00;99506.47;5175441;27;20042;-47
2022/10/31 03:00:07;;;;;;;7.25;1.45;;;;;;;3.41;100.00;99539.81;5175248;27;20319;-46
2022/10/31 03:02:59;;;;;;;3.53;0.85;;;;;;;3.51;100.00;99546.88;5175120;27;20095;-47
2022/10/31 03:05:41;;;;;;;5.43;0.95;;;;;;;3.68;100.00;99562.47;5174838;27;20051;-46
2022/10/31 03:08:17;;;;;;;3.58;0.80;;;;;;;3.66;100.00;99565.47;5175143;27;20050;-46
2022/10/31 03:10:48;;;;;;;3.85;0.70;;;;;;;3.60;100.00;99560.47;5174888;27;20055;-45
2022/10/31 03:13:24;;;;;;;2.40;1.30;;;;;;;3.53;100.00;99572.59;5174832;27;20057;-46
2022/10/31 03:15:54;;;;;;;5.68;0.80;;;;;;;3.54;100.00;99571.47;5175150;27;20487;-46
2022/10/31 03:18:28;;;;;;;2.83;0.93;;;;;;;3.47;100.00;99589.28;5174516;27;20057;-47
2022/10/31 03:20:58;;;;;;;3.43;0.97;;;;;;;3.48;100.00;99612.56;5175002;27;20050;-46
2022/10/31 03:23:26;;;;;;;4.22;0.90;;;;;;;3.53;100.00;99628.69;5174728;27;20086;-46
2022/10/31 03:25:54;;;;;;;4.63;0.93;;;;;;;3.58;100.00;99633.22;5174952;27;20102;-46
2022/10/31 03:28:27;;;;;;;2.10;1.00;;;;;;;3.45;100.00;99637.56;5174396;27;20531;-47
2022/10/31 03:30:55;;;;;;;4.88;0.82;;;;;;;3.48;100.00;99645.09;5173966;27;20576;-47
2022/10/31 03:33:27;;;;;;;3.00;0.95;;;;;;;3.49;100.00;99654.81;5174559;27;20404;-48
2022/10/31 03:35:57;;;;;;;3.00;1.08;;;;;;;3.35;100.00;99673.81;5174601;27;20103;-49
2022/10/31 03:38:23;;;;;;;3.38;1.25;;;;;;;3.32;100.00;99685.25;5174388;27;20086;-49
2022/10/31 03:40:53;;;;;;;2.30;0.85;;;;;;;3.44;100.00;99685.56;5174125;27;20057;-49
2022/10/31 03:43:24;;;;;;;7.07;1.15;;;;;;;3.08;100.00;99674.66;5174359;27;20053;-50
2022/10/31 03:45:51;;;;;;;4.32;1.10;;;;;;;3.38;100.00;99683.25;5174209;27;20050;-50
2022/10/31 03:48:20;;;;;;;1.13;1.00;;;;;;;3.42;100.00;99695.88;5174260;27;20042;-48
2022/10/31 03:50:54;;;;;;;1.60;1.02;;;;;;;3.48;100.00;99693.88;5174156;27;20082;-46
2022/10/31 03:53:26;;;;;;;2.08;1.30;;;;;;;3.27;100.00;99696.22;5174527;27;20046;-49
2022/10/31 03:55:59;;;;;;;4.30;1.23;;;;;;;3.29;100.00;99705.63;5173967;27;20054;-50
2022/10/31 03:58:32;;;;;;;2.42;1.02;;;;;;;3.17;100.00;99705.38;5174316;27;20042;-48
2022/10/31 04:01:02;;;;;;;1.67;1.00;;;;;;;3.21;100.00;99713.69;5174333;27;20046;-47
2022/10/31 04:03:32;;;;;;;14.27;3.22;;;;;;;3.21;100.00;99721.81;5173926;27;20083;-46
2022/10/31 04:06:03;;;;;;;7.38;1.30;;;;;;;3.30;100.00;99711.88;5173982;27;20047;-47
2022/10/31 04:08:33;;;;;;;2.22;1.05;;;;;;;3.28;100.00;99730.34;5173805;27;20080;-50
2022/10/31 04:11:02;;;;;;;6.07;1.23;;;;;;;3.08;100.00;99726.13;5173974;27;20050;-47
2022/10/31 04:13:32;;;;;;;2.65;1.08;;;;;;;3.21;100.00;99725.31;5173825;27;20050;-46
2022/10/31 04:15:59;;;;;;;3.63;1.55;;;;;;;3.11;100.00;99728.25;5173877;27;20056;-47
2022/10/31 04:18:26;;;;;;;3.15;1.33;;;;;;;3.25;100.00;99731.75;5173783;27;20046;-50
2022/10/31 04:21:01;;;;;;;4.68;1.35;;;;;;;3.21;100.00;99729.94;5173477;27;20513;-47
2022/10/31 04:23:28;;;;;;;5.75;1.30;;;;;;;3.10;100.00;99726.66;5173695;27;20109;-51
2022/10/31 04:25:55;;;;;;;1.63;1.00;;;;;;;3.08;100.00;99742.38;5173552;27;20050;-47
2022/10/31 04:28:21;;;;;;;4.97;1.33;;;;;;;3.06;100.00;99744.59;5173651;27;20436;-47
2022/10/31 04:30:47;;;;;;;8.88;1.30;;;;;;;3.05;100.00;99740.28;5173569;27;20128;-47
2022/10/31 04:33:13;;;;;;;4.40;1.48;;;;;;;3.11;100.00;99752.63;5173250;27;20042;-46
2022/10/31 04:35:40;;;;;;;2.30;1.00;;;;;;;3.08;100.00;99752.44;5173683;27;20054;-47
2022/10/31 04:38:07;;;;;;;4.75;1.50;;;;;;;3.03;100.00;99751.44;5173784;27;20046;-47
2022/10/31 04:40:33;;;;;;;6.20;1.40;;;;;;;2.91;100.00;99753.00;5173681;27;20046;-48
2022/10/31 04:43:00;;;;;;;4.82;1.40;;;;;;;2.96;100.00;99758.31;5173107;27;20046;-47
2022/10/31 04:45:26;;;;;;;3.80;1.20;;;;;;;3.04;100.00;99763.06;5173125;27;20051;-48
2022/10/31 04:47:52;;;;;;;4.10;2.10;;;;;;;2.93;100.00;99761.63;5172969;27;20046;-48
2022/10/31 04:50:18;;;;;;;4.05;1.30;;;;;;;2.96;100.00;99764.53;5173148;27;20050;-50
2022/10/31 04:52:46;;;;;;;5.18;1.77;;;;;;;2.90;100.00;99765.75;5172884;27;20042;-46
2022/10/31 04:55:14;;;;;;;4.03;1.50;;;;;;;2.75;100.00;99766.81;5173180;27;20053;-48
2022/10/31 04:57:41;;;;;;;5.07;1.80;;;;;;;2.86;100.00;99775.56;5173092;27;20095;-47
2022/10/31 05:00:09;;;;;;;1.52;1.20;;;;;;;2.93;100.00;99764.34;5173388;27;20050;-47
2022/10/31 05:02:43;;;;;;;10.77;4.22;;;;;;;3.01;100.00;99777.19;5173027;27;20050;-47
2022/10/31 05:05:09;;;;;;;4.43;1.55;;;;;;;2.94;100.00;99768.66;5172701;27;20050;-46
2022/10/31 05:07:39;;;;;;;4.88;1.75;;;;;;;2.90;100.00;99770.34;5172734;27;20531;-46
2022/10/31 05:10:06;;;;;;;4.80;1.65;;;;;;;3.03;100.00;99783.09;5172759;27;20046;-46
2022/10/31 05:12:33;;;;;;;6.63;1.50;;;;;;;2.99;100.00;99776.69;5172734;27;20046;-46
2022/10/31 05:14:59;;;;;;;3.35;1.55;;;;;;;2.87;100.00;99779.91;5172663;27;20136;-46
2022/10/31 05:17:25;;;;;;;4.90;1.67;;;;;;;2.92;100.00;99776.28;5172803;27;20050;-47
2022/10/31 05:19:52;;;;;;;4.53;1.73;;;;;;;2.89;100.00;99788.50;5172599;27;20050;-45
2022/10/31 05:22:18;;;;;;;5.03;1.52;;;;;;;2.78;100.00;99793.31;5172579;27;20130;-46
2022/10/31 05:24:45;;;;;;;7.75;1.70;;;;;;;2.94;100.00;99791.13;5172234;27;20054;-46
2022/10/31 05:27:11;;;;;;;5.18;1.20;;;;;;;2.93;100.00;99789.53;5172616;27;20052;-48
2022/10/31 05:29:38;;;;;;;4.40;1.55;;;;;;;3.13;100.00;99790.25;5172371;27;20493;-48
2022/10/31 05:32:04;;;;;;;5.28;1.27;;;;;;;3.26;100.00;99801.09;5172582;27;20050;-50
2022/10/31 05:34:30;;;;;;;3.63;1.20;;;;;;;3.27;100.00;99808.13;5172440;27;20054;-53
2022/10/31 05:36:56;;;;;;;5.35;1.85;;;;;;;3.26;100.00;99811.13;5172492;27;20046;-53
2022/10/31 05:39:23;;;;;;;2.97;1.33;;;;;;;3.20;100.00;99807.72;5172320;27;20050;-53
2022/10/31 05:41:49;;;;;;;7.25;1.73;;;;;;;3.21;100.00;99786.84;5172427;27;20068;-53
2022/10/31 05:44:15;;;;;;;4.93;1.52;;;;;;;3.29;100.00;99781.50;5172334;27;20046;-50
2022/10/31 05:46:42;;;;;;;6.47;1.63;;;;;;;3.37;100.00;99774.59;5172747;27;20054;-56
2022/10/31 05:49:08;;;;;;;2.13;1.40;;;;;;;3.41;100.00;99753.13;5172815;27;20050;-56
2022/10/31 05:51:34;;;;;;;3.17;1.60;;;;;;;3.32;100.00;99716.97;5172307;27;20050;-56
2022/10/31 05:54:00;;;;;;;2.13;1.08;;;;;;;3.50;100.00;99653.72;5171326;27;20098;-56
2022/10/31 05:56:27;;;;;;;3.45;1.42;;;;;;;3.47;100.00;99610.97;5171950;27;20046;-52
2022/10/31 05:58:53;;;;;;;7.07;1.50;;;;;;;3.56;100.00;99563.00;5172034;27;20476;-53
2022/10/31 06:01:19;;;;;;;2.53;1.23;;;;;;;3.73;100.00;99525.19;5172196;27;20068;-55
2022/10/31 06:03:46;;;;;;;2.00;1.52;;;;;;;3.77;100.00;99444.81;5172168;27;20073;-55
2022/10/31 06:06:12;;;;;;;7.82;2.00;;;;;;;4.00;100.00;99347.06;5171665;27;20046;-53
2022/10/31 06:08:39;;;;;;;5.18;1.80;;;;;;;4.99;100.00;99194.25;5171945;27;20424;-54
2022/10/31 06:11:05;;;;;;;2.63;1.30;;;;;;;5.95;100.00;98917.72;5171864;27;20050;-52
2022/10/31 06:13:31;;;;;;;3.08;1.20;;;;;;;6.52;100.00;98594.63;5171587;27;20394;-54
2022/10/31 06:15:57;;;;;;;2.25;1.30;;;;;;;7.01;100.00;98452.50;5171736;27;20110;-55
2022/10/31 06:18:24;;;;;;;2.88;1.00;;;;;;;7.33;100.00;98425.88;5171907;27;20054;-53
2022/10/31 06:20:51;;;;;;;1.95;1.25;;;;;;;7.87;100.00;98471.28;5171799;27;20462;-55
2022/10/31 06:23:17;;;;;;;4.70;1.20;;;;;;;8.13;100.00;98519.69;5171695;27;20050;-57
2022/10/31 06:25:48;;;;;;;6.78;1.15;;;;;;;8.32;100.00;98610.88;5171648;27;20046;-58
2022/10/31 06:28:14;;;;;;;2.25;1.15;;;;;;;8.58;100.00;98624.63;5171724;27;20078;-55
2022/10/31 06:30:40;;;;;;;3.72;1.35;;;;;;;8.98;100.00;98693.63;5171590;27;20502;-57
2022/10/31 06:33:07;;;;;;;5.72;1.30;;;;;;;8.99;100.00;98689.72;5171551;27;20084;-55
2022/10/31 06:35:33;;;;;;;5.53;1.40;;;;;;;9.17;100.00;98729.91;5171542;27;20050;-55
2022/10/31 06:38:00;;;;;;;2.72;1.40;;;;;;;9.49;100.00;98756.97;5171612;27;20042;-57
2022/10/31 06:40:26;;;;;;;6.55;1.42;;;;;;;9.68;100.00;98793.63;5171370;27;20047;-56
2022/10/31 06:42:59;;;;;;;4.25;1.40;;;;;;;9.47;100.00;98805.81;5171538;27;20158;-54
2022/10/31 06:45:26;;;;;;;3.50;1.30;;;;;;;9.40;100.00;98806.47;5171146;27;20092;-57
2022/10/31 06:47:53;;;;;;;2.47;1.17;;;;;;;9.67;100.00;98803.78;5171417;27;20049;-55
2022/10/31 06:50:19;;;;;;;6.15;1.67;;;;;;;9.41;100.00;98808.06;5171301;27;20064;-53
2022/10/31 06:52:50;;;;;;;2.58;1.38;;;;;;;9.62;100.00;98769.28;5171405;27;20078;-55
2022/10/31 06:55:17;;;;;;;3.38;1.40;;;;;;;10.31;100.00;98817.63;5171460;27;20053;-56
2022/10/31 06:57:50;;;;;;;2.25;1.30;;;;;;;10.12;100.00;98830.25;5171577;27;20054;-54
2022/10/31 07:00:16;;;;;;;2.10;1.30;;;;;;;10.44;100.00;98857.34;5171269;27;20425;-56
2022/10/31 07:02:43;;;;;;;2.92;1.15;;;;;;;10.53;100.00;98863.34;5171258;27;20473;-58
2022/10/31 07:05:09;;;;;;;4.07;1.25;;;;;;;10.95;100.00;98886.16;5171043;27;20046;-54
2022/10/31 07:07:35;;;;;;;1.73;1.00;;;;;;;10.94;100.00;98892.81;5174343;27;20071;-56
2022/10/31 07:10:01;;;;;;;3.40;1.33;;;;;;;10.47;100.00;98884.00;5174505;27;20052;-54
2022/10/31 07:12:28;;;;;;;3.15;1.75;;;;;;;10.32;100.00;98887.69;5174741;27;20050;-55
2022/10/31 07:14:54;;;;;;;3.42;1.40;;;;;;;10.74;100.00;98894.94;5174994;27;20202;-55
2022/10/31 07:17:24;;;;;;;2.35;1.15;;;;;;;10.58;100.00;98919.78;5174734;27;20841;-55
2022/10/31 07:19:50;;;;;;;3.10;1.20;;;;;;;10.35;100.00;98901.44;5174520;27;20046;-56
2022/10/31 07:22:16;;;;;;;4.70;1.40;;;;;;;10.16;100.00;98900.72;5174463;27;20133;-56
2022/10/31 07:24:42;;;;;;;2.35;0.98;;;;;;;9.92;100.00;98888.25;5174508;27;20109;-53
2022/10/31 07:27:09;;;;;;;5.85;1.10;;;;;;;9.88;100.00;98886.22;5174719;27;20046;-55
2022/10/31 07:29:35;;;;;;;3.15;1.40;;;;;;;9.65;100.00;98845.19;5174579;27;20431;-53
2022/10/31 07:32:02;;;;;;;3.13;1.48;;;;;;;9.02;100.00;98793.69;5174475;27;20129;-54
2022/10/31 07:34:28;;;;;;;4.38;1.23;;;;;;;8.63;100.00;98769.16;5174269;27;20061;-52
2022/10/31 07:36:54;;;;;;;1.63;0.88;;;;;;;8.53;100.00;98726.03;5174652;27;20057;-54
2022/10/31 07:39:20;;;;;;;5.18;0.95;;;;;;;8.47;100.00;98733.72;5173973;27;20132;-59
2022/10/31 07:41:47;;;;;;;5.55;1.20;;;;;;;8.18;100.00;98687.88;5174174;27;20061;-56
2022/10/31 07:44:13;;;;;;;4.10;1.30;;;;;;;8.10;100.00;98675.25;5174024;27;20585;-53
2022/10/31 07:46:40;;;;;;;3.72;1.15;;;;;;;8.15;100.00;98673.00;5174181;27;20515;-54
2022/10/31 07:49:06;;;;;;;3.67;1.17;;;;;;;8.22;100.00;98688.72;5173909;27;20129;-54
2022/10/31 07:51:33;;;;;;;3.78;1.05;;;;;;;8.14;100.00;98682.34;5173749;27;20497;-52
2022/10/31 07:53:59;;;;;;;3.38;1.10;;;;;;;8.30;100.00;98673.25;5173919;27;20053;-52
2022/10/31 07:56:25;;;;;;;4.72;1.10;;;;;;;7.96;100.00;98651.16;5173861;27;20046;-54
2022/10/31 07:58:52;;;;;;;1.70;1.17;;;;;;;8.44;100.00;98652.50;5173799;27;20428;-55
2022/10/31 08:01:18;;;;;;;3.97;1.13;;;;;;;8.31;100.00;98664.72;5173826;27;20088;-55
2022/10/31 08:03:45;;;;;;;5.40;1.58;;;;;;;8.77;100.00;98689.38;5173719;27;20054;-52
2022/10/31 08:06:11;;;;;;;2.45;1.15;;;;;;;9.32;100.00;98722.69;5173590;27;20057;-54
2022/10/31 08:08:37;;;;;;;5.00;1.02;;;;;;;9.80;100.00;98769.56;5173651;27;20156;-52
2022/10/31 08:11:03;;;;;;;1.65;0.95;;;;;;;9.93;100.00;98808.47;5173760;27;20053;-53
2022/10/31 08:13:29;;;;;;;6.72;1.88;;;;;;;10.00;100.00;98855.13;5173613;27;20042;-53
2022/10/31 08:16:03;;;;;;;3.15;1.10;;;;;;;10.23;100.00;98857.81;5173731;27;20463;-55
2022/10/31 08:18:30;;;;;;;6.00;1.45;;;;;;;10.51;100.00;98870.34;5172757;27;20046;-54
2022/10/31 08:20:56;;;;;;;2.63;1.10;;;;;;;11.12;100.00;98912.22;5173506;27;20046;-56
2022/10/31 08:23:23;;;;;;;1.25;1.00;;;;;;;11.18;100.00;98946.41;5173596;27;20042;-56
2022/10/31 08:25:49;;;;;;;2.63;1.17;;;;;;;11.45;100.00;98947.88;5173262;27;20159;-57
2022/10/31 08:28:15;;;;;;;3.85;1.00;;;;;;;11.61;100.00;98952.38;5173404;27;20094;-57
2022/10/31 08:30:42;;;;;;;3.88;1.48;;;;;;;11.31;100.00;98959.50;5173312;27;20085;-53
2022/10/31 08:33:11;;;;;;;2.72;1.30;;;;;;;11.19;100.00;98973.44;5173623;27;20182;-56
2022/10/31 08:35:37;;;;;;;4.18;0.98;;;;;;;10.78;100.00;98975.28;5173279;27;20046;-56
2022/10/31 08:38:05;;;;;;;2.05;1.08;;;;;;;10.70;100.00;98962.66;5173084;27;20405;-58
2022/10/31 08:40:32;;;;;;;4.07;1.23;;;;;;;11.21;100.00;98976.63;5173417;27;20134;-55
2022/10/31 08:43:00;;;;;;;2.10;0.90;;;;;;;10.56;100.00;98972.25;5173315;27;20501;-56
2022/10/31 08:45:27;;;;;;;3.70;0.90;;;;;;;10.41;100.00;98973.19;5173158;27;20058;-53
2022/10/31 08:47:57;;;;;;;2.53;1.02;;;;;;;10.02;100.00;98964.28;5173139;27;20053;-53
2022/10/31 08:50:23;;;;;;;15.05;3.03;;;;;;;9.53;100.00;98945.81;5173057;27;20050;-56
2022/10/31 08:52:50;;;;;;;2.45;1.02;;;;;;;9.32;100.00;98921.59;5173061;27;20094;-53
2022/10/31 08:55:17;;;;;;;3.90;0.90;;;;;;;9.26;100.00;98904.69;5172943;27;20052;-54
2022/10/31 08:57:43;;;;;;;3.88;1.20;;;;;;;8.97;100.00;98888.91;5173000;27;20050;-55
2022/10/31 09:00:10;;;;;;;3.58;0.98;;;;;;;8.77;100.00;98877.19;5172829;27;20049;-56
2022/10/31 09:02:38;;;;;;;3.08;0.90;;;;;;;8.44;100.00;98871.03;5172777;27;20046;-55
2022/10/31 09:05:05;;;;;;;3.03;0.90;;;;;;;8.38;100.00;98849.81;5172771;27;20054;-56
2022/10/31 09:07:31;;;;;;;9.07;1.50;;;;;;;8.22;100.00;98847.09;5172833;27;20054;-53
2022/10/31 09:09:57;;;;;;;4.93;1.27;;;;;;;8.05;100.00;98844.78;5172632;27;20052;-56
2022/10/31 09:12:24;;;;;;;3.63;0.80;;;;;;;8.25;100.00;98833.53;5172825;27;20042;-55
2022/10/31 09:14:50;;;;;;;2.58;1.00;;;;;;;8.29;100.00;98841.00;5172536;27;20053;-52
2022/10/31 09:17:16;;;;;;;5.05;1.25;;;;;;;8.36;100.00;98869.25;5172715;27;20050;-52
2022/10/31 09:19:43;;;;;;;4.68;1.30;;;;;;;8.09;100.00;98859.28;5172491;27;20052;-53
2022/10/31 09:22:09;;;;;;;3.40;1.00;;;;;;;8.16;100.00;98876.66;5172631;27;20093;-53
2022/10/31 09:24:35;;;;;;;5.72;2.25;;;;;;;7.97;100.00;98863.72;5172294;27;20558;-54
2022/10/31 09:27:01;;;;;;;4.50;1.42;;;;;;;8.15;100.00;98857.88;5172439;27;20090;-56
2022/10/31 09:29:28;;;;;;;3.05;1.65;;;;;;;8.16;100.00;98815.75;5172362;27;20057;-56
2022/10/31 09:31:56;;;;;;;12.10;1.42;;;;;;;8.21;100.00;98820.97;5172440;27;20042;-53
2022/10/31 09:34:23;;;;;;;9.55;2.25;;;;;;;8.41;100.00;98806.19;5172314;27;20054;-55
2022/10/31 09:36:49;;;;;;;5.30;1.25;;;;;;;8.43;100.00;98825.75;5172539;27;20046;-56
2022/10/31 09:39:15;;;;;;;4.43;1.77;;;;;;;8.49;100.00;98807.91;5172467;27;20068;-56
2022/10/31 09:42:13;;;;;;;1.65;0.93;;;;;;;8.28;100.00;98894.84;5172226;27;20497;-55
2022/10/31 09:44:50;;;;;;;5.35;1.60;;;;;;;8.21;100.00;98878.31;5158991;27;20131;-53
2022/10/31 09:47:29;;;;;;;3.33;1.42;;;;;;;8.01;100.00;98877.47;5172060;27;20098;-57
2022/10/31 09:50:12;;;;;;;5.75;1.20;;;;;;;8.19;100.00;98856.00;5172552;27;20122;-54
2022/10/31 09:52:43;;;;;;;1.80;0.80;;;;;;;8.09;100.00;98864.75;5172328;27;20078;-55
2022/10/31 09:55:16;;;;;;;3.25;0.70;;;;;;;8.07;100.00;98867.84;5172206;27;20068;-53
2022/10/31 09:57:43;;;;;;;8.73;1.00;;;;;;;8.24;100.00;98881.09;5172363;27;20057;-54
2022/10/31 10:00:16;;;;;;;2.47;1.00;;;;;;;8.26;100.00;98918.97;5171963;27;20489;-51
2022/10/31 10:02:49;;;;;;;4.65;1.02;;;;;;;8.14;100.00;98932.75;5172284;27;20046;-52
2022/10/31 10:05:22;;;;;;;1.35;1.27;;;;;;;8.06;100.00;98926.31;5171766;27;20094;-49
2022/10/31 10:07:57;;;;;;;3.65;0.85;;;;;;;8.29;100.00;98917.47;5172186;27;20110;-51
2022/10/31 10:10:33;;;;;;;2.35;0.77;;;;;;;8.31;100.00;98934.31;5171971;27;20053;-50
2022/10/31 10:13:14;;;;;;;3.45;0.80;;;;;;;8.41;100.00;98964.63;5171742;27;20050;-50
2022/10/31 10:16:15;;;;;;;8.73;1.70;;;;;;;8.63;100.00;98959.63;5171870;27;20553;-52
2022/10/31 10:19:00;;;;;;;1.95;0.88;;;;;;;8.92;100.00;98969.25;5155657;27;20058;-52
2022/10/31 10:21:37;;;;;;;2.83;0.65;;;;;;;9.22;100.00;98983.16;5172024;27;20362;-52
2022/10/31 10:24:20;;;;;;;5.50;1.00;;;;;;;9.03;100.00;99008.56;5171801;27;20424;-52
2022/10/31 10:26:54;;;;;;;4.30;0.77;;;;;;;9.30;100.00;99020.47;5171632;27;20046;-52
2022/10/31 10:29:33;;;;;;;2.30;0.57;;;;;;;9.15;100.00;99021.31;5172003;27;20105;-54
2022/10/31 10:32:07;;;;;;;2.08;1.00;;;;;;;9.21;100.00;99038.25;5171466;27;20137;-53
2022/10/31 10:34:37;;;;;;;3.25;0.95;;;;;;;9.77;100.00;99044.06;5171596;27;20050;-53
2022/10/31 10:37:09;;;;;;;4.32;1.33;;;;;;;9.55;100.00;99066.69;5171617;27;20050;-51
2022/10/31 10:39:38;;;;;;;4.30;0.75;;;;;;;10.12;100.00;99067.78;5171674;27;20054;-51
2022/10/31 10:48:13;;;;;;;3.72;1.65;;;;;;;10.99;100.00;99100.94;5090385;28;20196;-53
2022/10/31 10:50:45;;;;;;;1.17;0.60;;;;;;;11.23;100.00;99103.28;5090178;28;20500;-52
2022/10/31 10:53:36;;;;;;;7.63;1.38;;;;;;;11.36;100.00;99119.50;5125539;27;20500;-54
2022/10/31 10:56:15;;;;;;;5.25;0.95;;;;;;;11.26;100.00;99132.72;5174916;27;20054;-52
2022/10/31 10:58:42;;;;;;;5.97;0.98;;;;;;;11.32;100.00;99144.16;5174657;27;20474;-49
2022/10/31 11:01:13;;;;;;;3.03;0.93;;;;;;;10.89;100.00;99145.47;5175151;27;20054;-52
2022/10/31 11:03:41;;;;;;;8.90;0.90;;;;;;;10.72;100.00;99142.06;5174791;27;20428;-50
2022/10/31 11:06:20;;;;;;;3.15;0.60;;;;;;;10.76;100.00;99137.44;5174751;27;20176;-49
2022/10/31 11:08:46;;;;;;;3.08;0.68;;;;;;;10.91;100.00;99129.44;5174733;27;20141;-49
2022/10/31 11:11:27;;;;;;;1.00;0.70;;;;;;;10.75;100.00;99119.38;5174522;27;20088;-50
2022/10/31 11:14:00;;;;;;;1.38;0.73;;;;;;;10.32;100.00;99117.84;5174543;27;20137;-50
2022/10/31 11:16:30;;;;;;;1.88;0.73;;;;;;;10.17;100.00;99118.75;5174404;27;20054;-49
2022/10/31 11:19:08;;;;;;;4.75;0.85;;;;;;;10.02;100.00;99123.94;5174534;27;20113;-50
2022/10/31 11:21:35;;;;;;;5.25;0.80;;;;;;;9.77;100.00;99112.50;5174410;27;20500;-49
2022/10/31 11:24:12;;;;;;;2.05;0.98;;;;;;;9.62;100.00;99103.19;5174974;27;20412;-49
2022/10/31 11:26:40;;;;;;;2.80;1.10;;;;;;;9.60;100.00;99094.56;5174443;27;20050;-48
2022/10/31 11:29:14;;;;;;;2.13;0.90;;;;;;;9.72;100.00;99101.03;5174526;27;20083;-51
2022/10/31 11:31:40;;;;;;;0.85;0.80;;;;;;;9.58;100.00;99088.66;5174600;27;20053;-50
2022/10/31 11:34:15;;;;;;;5.63;0.85;;;;;;;9.51;100.00;99076.78;5174362;27;20398;-50
2022/10/31 11:36:44;;;;;;;1.48;0.90;;;;;;;9.39;100.00;99064.78;5174639;27;20050;-49
2022/10/31 11:39:18;;;;;;;2.25;0.60;;;;;;;9.30;100.00;99066.19;5174114;27;20449;-49
2022/10/31 11:41:45;;;;;;;3.90;0.90;;;;;;;9.10;100.00;99059.88;5174262;27;20145;-50
2022/10/31 11:44:15;;;;;;;0.98;0.70;;;;;;;9.15;100.00;99051.38;5174165;27;20824;-52
2022/10/31 11:46:45;;;;;;;1.75;0.60;;;;;;;9.11;100.00;99045.84;5173960;27;20141;-53